Time;durP1;ratioP1;P1;durP2;ratioP2;P2;SDS_P1;SDS_P2;PMS_P1;PMS_P2;Temp;Humidity;BMP_temperature;BMP_pressure;BME280_temperature;BME280_humidity;BME280_pressure;Samples;Min_cycle;Max_cycle;Signal;HPM_P1;HPM_P2
2022/07/03 00:01:03;;;;;;;0.00;0.00;;;17.50;99.90;16.20;96413.00;;;;5054390;28;20523;-73
2022/07/03 00:03:31;;;;;;;0.00;0.00;;;17.50;99.90;16.00;96394.00;;;;5056160;28;20195;-73
2022/07/03 00:05:59;;;;;;;0.00;0.00;;;17.40;99.90;15.80;96373.00;;;;5057455;28;20198;-72
2022/07/03 00:08:27;;;;;;;0.00;0.00;;;17.20;99.90;15.90;96394.00;;;;5056131;28;20919;-73
2022/07/03 00:10:55;;;;;;;0.00;0.00;;;17.20;99.90;15.80;96382.00;;;;5054328;28;20222;-73
2022/07/03 00:13:23;;;;;;;0.00;0.00;;;17.10;99.90;15.80;96379.00;;;;5055001;28;20257;-73
2022/07/03 00:15:51;;;;;;;0.00;0.00;;;17.20;99.90;15.80;96400.00;;;;5054575;28;20214;-73
2022/07/03 00:18:21;;;;;;;0.00;0.00;;;17.20;99.90;15.60;96403.00;;;;5055505;28;20197;-73
2022/07/03 00:20:55;;;;;;;0.00;0.00;;;17.00;99.90;15.60;96421.00;;;;5055455;28;20211;-73
2022/07/03 00:23:24;;;;;;;0.00;0.00;;;17.00;99.90;15.40;96381.00;;;;5055199;28;20675;-72
2022/07/03 00:25:52;;;;;;;0.00;0.00;;;16.80;99.90;15.40;96374.00;;;;5055266;28;20202;-73
2022/07/03 00:28:21;;;;;;;0.00;0.00;;;16.70;99.90;15.40;96404.00;;;;5055652;28;20317;-75
2022/07/03 00:30:50;;;;;;;0.00;0.00;;;16.80;99.90;15.50;96400.00;;;;5055019;28;20218;-73
2022/07/03 00:33:20;;;;;;;0.10;0.10;;;16.90;99.90;15.60;96423.00;;;;5055505;28;20197;-72
2022/07/03 00:35:55;;;;;;;0.00;0.00;;;16.90;99.90;15.80;96398.00;;;;5053519;28;20207;-73
2022/07/03 00:38:23;;;;;;;0.00;0.00;;;17.10;99.90;15.70;96360.00;;;;5052756;28;20202;-73
2022/07/03 00:40:51;;;;;;;0.08;0.08;;;16.90;99.90;15.60;96407.00;;;;5053736;28;20689;-73
2022/07/03 00:43:22;;;;;;;0.00;0.00;;;16.90;99.90;15.60;96388.00;;;;5055793;28;20191;-73
2022/07/03 00:45:51;;;;;;;0.00;0.00;;;16.90;99.90;15.60;96394.00;;;;5055312;28;20228;-73
2022/07/03 00:48:22;;;;;;;0.00;0.00;;;16.90;99.90;15.70;96388.00;;;;5055624;28;20556;-73
2022/07/03 00:50:52;;;;;;;0.00;0.00;;;17.00;99.90;15.80;96407.00;;;;5055409;28;20226;-73
2022/07/03 00:53:29;;;;;;;0.00;0.00;;;17.10;99.90;15.70;96346.00;;;;5055410;28;20221;-73
2022/07/03 00:56:00;;;;;;;0.00;0.00;;;17.10;99.90;15.60;96360.00;;;;5055660;28;20202;-74
2022/07/03 00:58:29;;;;;;;0.00;0.00;;;17.00;99.90;15.70;96367.00;;;;5055067;28;20202;-73
2022/07/03 01:00:57;;;;;;;0.00;0.00;;;17.00;99.90;15.60;96358.00;;;;5054313;28;20219;-73
2022/07/03 01:03:33;;;;;;;0.00;0.00;;;16.90;99.90;15.70;96369.00;;;;5056176;28;20206;-73
2022/07/03 01:06:11;;;;;;;0.00;0.00;;;16.90;99.90;15.60;96371.00;;;;5055469;28;20277;-72
2022/07/03 01:08:46;;;;;;;0.00;0.00;;;17.00;99.90;15.70;96339.00;;;;5055306;28;20198;-73
2022/07/03 01:11:22;;;;;;;0.00;0.00;;;17.00;99.90;15.80;96361.00;;;;5054613;28;20209;-73
2022/07/03 01:14:11;;;;;;;0.00;0.00;;;17.10;99.90;15.70;96378.00;;;;5053288;28;20194;-73
2022/07/03 01:16:59;;;;;;;0.00;0.00;;;17.00;99.90;15.70;96359.00;;;;5052242;28;20215;-74
2022/07/03 01:19:41;;;;;;;0.00;0.00;;;17.10;99.90;15.60;96377.00;;;;5051777;28;20220;-72
2022/07/03 01:22:31;;;;;;;0.00;0.00;;;16.90;99.90;15.50;96358.00;;;;5052488;28;20194;-74
2022/07/03 01:25:17;;;;;;;0.00;0.00;;;16.80;99.90;15.50;96349.00;;;;5052277;28;20205;-74
2022/07/03 01:28:03;;;;;;;0.00;0.00;;;16.80;99.90;15.40;96336.00;;;;5051626;28;20558;-74
2022/07/03 01:30:36;;;;;;;0.00;0.00;;;16.80;99.90;15.50;96362.00;;;;5052036;28;20229;-74
2022/07/03 01:33:08;;;;;;;0.00;0.00;;;16.80;99.90;15.50;96327.00;;;;5052391;28;20186;-75
2022/07/03 01:35:39;;;;;;;0.00;0.00;;;16.80;99.90;15.50;96302.00;;;;5051868;28;20194;-73
2022/07/03 01:38:11;;;;;;;0.00;0.00;;;16.80;99.90;15.60;96346.00;;;;5050582;28;20217;-74
2022/07/03 01:40:41;;;;;;;0.00;0.00;;;16.80;99.90;15.60;96364.00;;;;5052174;28;20218;-74
2022/07/03 01:43:13;;;;;;;0.00;0.00;;;16.90;99.90;15.50;96300.00;;;;5052912;28;20201;-73
2022/07/03 01:45:47;;;;;;;0.00;0.00;;;16.80;99.90;15.60;96314.00;;;;5054299;28;20186;-73
2022/07/03 01:48:16;;;;;;;0.00;0.00;;;16.80;99.90;15.60;96300.00;;;;5052679;28;20524;-74
2022/07/03 01:50:47;;;;;;;0.00;0.00;;;16.80;99.90;15.70;96306.00;;;;5054655;28;20241;-74
2022/07/03 01:53:16;;;;;;;0.00;0.00;;;16.90;99.90;15.70;96291.00;;;;5053471;28;20194;-73
2022/07/03 01:55:48;;;;;;;0.00;0.00;;;16.90;99.90;15.70;96307.00;;;;5051816;28;20191;-77
2022/07/03 01:58:18;;;;;;;0.00;0.00;;;17.00;99.90;15.70;96300.00;;;;5051485;28;20723;-74
2022/07/03 02:00:57;;;;;;;0.00;0.00;;;16.90;99.90;15.70;96291.00;;;;5051698;28;20705;-74
2022/07/03 02:03:29;;;;;;;0.00;0.00;;;16.90;99.90;15.40;96307.00;;;;5051572;28;20186;-73
2022/07/03 02:06:06;;;;;;;0.00;0.00;;;16.90;99.90;15.70;96283.00;;;;5051792;28;20709;-74
2022/07/03 02:08:45;;;;;;;0.00;0.00;;;16.90;99.90;15.80;96297.00;;;;5051961;28;20182;-74
2022/07/03 02:11:37;;;;;;;0.00;0.00;;;17.00;99.90;15.70;96288.00;;;;5052379;28;20187;-74
2022/07/03 02:14:14;;;;;;;0.00;0.00;;;17.00;99.90;15.80;96297.00;;;;5052105;28;20201;-76
2022/07/03 02:16:54;;;;;;;0.00;0.00;;;17.00;99.90;15.80;96299.00;;;;5056585;28;20739;-73
2022/07/03 02:19:35;;;;;;;0.00;0.00;;;17.00;99.90;15.80;96295.00;;;;5057635;28;20221;-74
2022/07/03 02:22:08;;;;;;;0.00;0.00;;;17.00;99.90;15.80;96295.00;;;;5057626;28;20217;-74
2022/07/03 02:24:44;;;;;;;0.00;0.00;;;17.00;99.90;15.70;96290.00;;;;5056995;28;20654;-74
2022/07/03 02:27:20;;;;;;;0.00;0.00;;;17.00;99.90;15.50;96279.00;;;;5055105;28;20673;-74
2022/07/03 02:29:55;;;;;;;0.00;0.00;;;16.90;99.90;15.70;96286.00;;;;5054891;28;20290;-74
2022/07/03 02:32:26;;;;;;;0.00;0.00;;;16.90;99.90;15.60;96279.00;;;;5055089;28;20194;-74
2022/07/03 02:35:02;;;;;;;0.00;0.00;;;16.90;99.90;15.60;96305.00;;;;5054944;28;20197;-73
2022/07/03 02:37:39;;;;;;;0.00;0.00;;;16.80;99.90;15.60;96291.00;;;;5054753;28;20214;-74
2022/07/03 02:40:20;;;;;;;0.00;0.00;;;16.90;99.90;15.70;96286.00;;;;5055136;28;20218;-74
2022/07/03 02:43:04;;;;;;;0.00;0.00;;;16.90;99.90;15.60;96291.00;;;;5055166;28;20572;-73
2022/07/03 02:45:55;;;;;;;0.00;0.00;;;16.90;99.90;15.60;96316.00;;;;5056447;28;20194;-73
2022/07/03 02:48:33;;;;;;;0.00;0.00;;;16.80;99.90;15.50;96299.00;;;;5056420;28;20225;-73
2022/07/03 02:51:10;;;;;;;0.00;0.00;;;16.80;99.90;15.60;96297.00;;;;5056426;28;20205;-74
2022/07/03 02:53:48;;;;;;;0.00;0.00;;;16.80;99.90;15.60;96191.00;;;;5056360;28;20223;-74
2022/07/03 02:56:28;;;;;;;0.00;0.00;;;16.80;99.90;15.60;96267.00;;;;5055491;28;20205;-73
2022/07/03 02:59:08;;;;;;;0.00;0.00;;;16.80;99.90;15.60;96298.00;;;;5054956;28;20198;-74
2022/07/03 03:01:49;;;;;;;0.00;0.00;;;16.80;99.90;15.50;96276.00;;;;5055752;28;20213;-73
2022/07/03 03:04:25;;;;;;;0.00;0.00;;;16.70;99.90;15.50;96287.00;;;;5055904;28;20216;-73
2022/07/03 03:07:00;;;;;;;0.00;0.00;;;16.80;99.90;15.60;96286.00;;;;5055464;28;20194;-73
2022/07/03 03:09:35;;;;;;;0.00;0.00;;;16.80;99.90;15.50;96279.00;;;;5054910;28;20217;-73
2022/07/03 03:12:07;;;;;;;0.00;0.00;;;16.80;99.90;15.50;96272.00;;;;5055750;28;20198;-74
2022/07/03 03:14:41;;;;;;;0.00;0.00;;;16.70;99.90;15.50;96272.00;;;;5056666;28;20232;-74
2022/07/03 03:17:17;;;;;;;0.00;0.00;;;16.70;99.90;15.50;96312.00;;;;5056796;28;20221;-74
2022/07/03 03:19:52;;;;;;;0.00;0.00;;;16.70;99.90;15.50;96282.00;;;;5056604;28;20220;-73
2022/07/03 03:22:37;;;;;;;0.00;0.00;;;16.70;99.90;15.40;96286.00;;;;5056889;28;20190;-73
2022/07/03 03:25:06;;;;;;;0.00;0.00;;;16.70;99.90;15.50;96286.00;;;;5055236;28;20206;-74
2022/07/03 03:27:34;;;;;;;0.00;0.00;;;16.70;99.90;15.40;96299.00;;;;5054295;28;20206;-76
2022/07/03 03:30:06;;;;;;;0.00;0.00;;;16.70;99.90;15.40;96276.00;;;;5053503;28;20218;-73
2022/07/03 03:32:36;;;;;;;0.00;0.00;;;16.60;99.90;15.40;96286.00;;;;5053945;28;20609;-74
2022/07/03 03:35:06;;;;;;;0.00;0.00;;;16.60;99.90;15.30;96292.00;;;;5052470;28;20213;-73
2022/07/03 03:37:34;;;;;;;0.00;0.00;;;16.50;99.90;15.30;96296.00;;;;5053586;28;20222;-77
2022/07/03 03:40:03;;;;;;;0.00;0.00;;;16.50;99.90;15.30;96291.00;;;;5053583;28;20218;-74
2022/07/03 03:42:31;;;;;;;0.00;0.00;;;16.50;99.90;15.30;96287.00;;;;5057871;28;20561;-75
2022/07/03 03:44:59;;;;;;;0.00;0.00;;;16.50;99.90;15.20;96288.00;;;;5058904;28;20264;-74
2022/07/03 03:47:29;;;;;;;0.00;0.00;;;16.40;99.90;15.30;96276.00;;;;5059304;28;20199;-74
2022/07/03 03:49:59;;;;;;;0.00;0.00;;;16.50;99.90;15.40;96286.00;;;;5058579;28;20225;-73
2022/07/03 03:52:28;;;;;;;0.00;0.00;;;16.60;99.90;15.40;96309.00;;;;5054656;28;20186;-73
2022/07/03 03:54:56;;;;;;;0.00;0.00;;;16.60;99.90;15.30;96306.00;;;;5054019;28;20657;-73
2022/07/03 03:57:26;;;;;;;0.00;0.00;;;16.50;99.90;15.30;96297.00;;;;5056819;28;20214;-74
2022/07/03 03:59:56;;;;;;;0.00;0.00;;;16.50;99.90;15.40;96290.00;;;;5061645;28;20210;-76
2022/07/03 04:02:24;;;;;;;0.00;0.00;;;16.50;99.90;15.40;96292.00;;;;5061355;28;20540;-74
2022/07/03 04:04:52;;;;;;;0.00;0.00;;;16.60;99.90;15.40;96298.00;;;;5055823;28;20191;-77
2022/07/03 04:07:22;;;;;;;0.00;0.00;;;16.60;99.90;15.40;96324.00;;;;5053612;28;20194;-77
2022/07/03 04:09:50;;;;;;;0.00;0.00;;;16.60;99.90;15.40;96286.00;;;;5053650;28;20573;-77
2022/07/03 04:12:18;;;;;;;0.00;0.00;;;16.60;99.90;15.40;96284.00;;;;5053909;28;20758;-77
2022/07/03 04:14:46;;;;;;;0.05;0.05;;;16.60;99.90;15.50;96296.00;;;;5053530;28;20201;-77
2022/07/03 04:17:14;;;;;;;0.00;0.00;;;16.60;99.90;15.50;96293.00;;;;5053699;28;20186;-77
2022/07/03 04:19:42;;;;;;;0.00;0.00;;;16.60;99.90;15.50;96292.00;;;;5053416;28;20626;-77
2022/07/03 04:22:11;;;;;;;0.00;0.00;;;16.60;99.90;15.50;96301.00;;;;5053581;28;20199;-76
2022/07/03 04:24:40;;;;;;;0.00;0.00;;;16.70;99.90;15.50;96294.00;;;;5053175;28;20187;-76
2022/07/03 04:27:08;;;;;;;0.00;0.00;;;16.70;99.90;15.60;96290.00;;;;5053334;28;20195;-77
2022/07/03 04:29:36;;;;;;;0.10;0.10;;;16.70;99.90;15.50;96304.00;;;;5052441;28;20206;-77
2022/07/03 04:32:05;;;;;;;0.00;0.00;;;16.70;99.90;15.60;96293.00;;;;5057785;28;20194;-77
2022/07/03 04:34:33;;;;;;;0.00;0.00;;;16.70;99.90;15.70;96281.00;;;;5053199;28;20202;-77
2022/07/03 04:37:01;;;;;;;0.00;0.00;;;16.80;99.90;15.70;96281.00;;;;5052507;28;20198;-77
2022/07/03 04:39:29;;;;;;;0.00;0.00;;;16.80;99.90;15.70;96279.00;;;;5052396;28;20230;-77
2022/07/03 04:41:58;;;;;;;0.00;0.00;;;16.90;99.90;15.80;96287.00;;;;5052430;28;20198;-75
2022/07/03 04:44:27;;;;;;;0.00;0.00;;;16.90;99.90;15.80;96299.00;;;;5052449;28;20201;-76
2022/07/03 04:46:55;;;;;;;0.00;0.00;;;16.90;99.90;15.80;96288.00;;;;5052367;28;20195;-75
2022/07/03 04:49:23;;;;;;;0.00;0.00;;;16.90;99.90;15.80;96278.00;;;;5052467;28;20222;-75
2022/07/03 04:51:52;;;;;;;0.00;0.00;;;16.90;99.90;15.80;96278.00;;;;5052291;28;20199;-77
2022/07/03 04:54:20;;;;;;;0.00;0.00;;;16.90;99.90;15.90;96285.00;;;;5052142;28;20206;-75
2022/07/03 04:56:48;;;;;;;0.00;0.00;;;17.00;99.90;15.90;96293.00;;;;5052174;28;20199;-76
2022/07/03 04:59:17;;;;;;;0.00;0.00;;;17.00;99.90;15.90;96283.00;;;;5051782;28;20218;-76
2022/07/03 05:01:47;;;;;;;0.00;0.00;;;17.00;99.90;16.00;96296.00;;;;5052277;28;20194;-75
2022/07/03 05:04:15;;;;;;;0.00;0.00;;;17.10;99.90;16.10;96330.00;;;;5052234;28;20194;-75
2022/07/03 05:06:44;;;;;;;0.00;0.00;;;17.20;99.90;16.20;96344.00;;;;5051932;28;20613;-75
2022/07/03 05:09:12;;;;;;;0.00;0.00;;;17.30;99.90;16.20;96353.00;;;;5052042;28;20225;-76
2022/07/03 05:11:41;;;;;;;0.00;0.00;;;17.30;99.90;16.30;96370.00;;;;5051967;28;20191;-76
2022/07/03 05:14:09;;;;;;;0.00;0.00;;;17.40;99.90;16.30;96354.00;;;;5052252;28;20552;-76
2022/07/03 05:16:38;;;;;;;0.00;0.00;;;17.40;99.90;16.40;96333.00;;;;5052499;28;20549;-78
2022/07/03 05:19:07;;;;;;;0.00;0.00;;;17.50;99.90;16.50;96333.00;;;;5051211;28;20226;-76
2022/07/03 05:21:35;;;;;;;0.00;0.00;;;17.60;99.90;16.60;96341.00;;;;5053256;28;20193;-78
2022/07/03 05:24:03;;;;;;;0.00;0.00;;;17.70;99.90;16.70;96353.00;;;;5052400;28;20201;-76
2022/07/03 05:26:36;;;;;;;0.00;0.00;;;17.80;99.90;16.70;96363.00;;;;5051844;28;20228;-76
2022/07/03 05:29:04;;;;;;;0.00;0.00;;;17.80;99.90;16.80;96367.00;;;;5051507;28;20202;-76
2022/07/03 05:31:32;;;;;;;0.00;0.00;;;17.90;99.90;16.90;96367.00;;;;5051948;28;20680;-76
2022/07/03 05:34:01;;;;;;;0.00;0.00;;;18.00;99.90;17.00;96358.00;;;;5051932;28;20217;-76
2022/07/03 05:36:29;;;;;;;0.00;0.00;;;18.10;99.90;17.10;96363.00;;;;5052327;28;20202;-76
2022/07/03 05:41:43;;;;;;;0.00;0.00;;;18.30;99.90;17.40;96386.00;;;;5060630;28;20653;-76
2022/07/03 05:44:11;;;;;;;0.00;0.00;;;18.40;99.90;17.40;96387.00;;;;5060259;28;20191;-76
2022/07/03 05:46:39;;;;;;;0.00;0.00;;;18.50;99.90;17.50;96387.00;;;;5065200;28;20182;-75
2022/07/03 05:49:08;;;;;;;0.00;0.00;;;18.60;99.90;17.70;96406.00;;;;5066618;28;20195;-75
2022/07/03 05:51:36;;;;;;;0.00;0.00;;;18.70;99.90;17.80;96416.00;;;;5063854;28;20201;-76
2022/07/03 05:54:04;;;;;;;0.00;0.00;;;18.90;99.90;18.00;96409.00;;;;5064488;28;20194;-76
2022/07/03 05:56:32;;;;;;;0.00;0.00;;;19.00;99.90;18.10;96414.00;;;;5066305;28;20190;-76
2022/07/03 05:59:00;;;;;;;0.00;0.00;;;19.10;99.90;18.20;96427.00;;;;5067947;28;20881;-76
2022/07/03 06:01:28;;;;;;;0.00;0.00;;;19.30;99.90;18.30;96429.00;;;;5071030;28;20205;-76
2022/07/03 06:03:56;;;;;;;0.00;0.00;;;19.30;99.90;18.40;96437.00;;;;5071706;28;20197;-76
2022/07/03 06:06:26;;;;;;;0.00;0.00;;;19.40;99.90;18.50;96433.00;;;;5072109;28;20195;-76
2022/07/03 06:08:54;;;;;;;0.00;0.00;;;19.60;99.90;18.60;96410.00;;;;5056140;28;20585;-78
2022/07/03 06:11:22;;;;;;;0.00;0.00;;;19.60;99.90;18.70;96421.00;;;;5055510;28;20194;-76
2022/07/03 06:13:50;;;;;;;0.00;0.00;;;19.70;99.90;18.80;96404.00;;;;5055012;28;20191;-75
2022/07/03 06:16:18;;;;;;;0.00;0.00;;;19.80;99.90;18.90;96414.00;;;;5055486;28;20257;-76
2022/07/03 06:18:46;;;;;;;0.00;0.00;;;19.90;99.90;18.90;96407.00;;;;5059462;28;20274;-75
2022/07/03 06:21:14;;;;;;;0.00;0.00;;;20.00;99.90;19.00;96418.00;;;;5062503;28;20203;-76
2022/07/03 06:23:44;;;;;;;0.00;0.00;;;20.10;99.90;19.20;96429.00;;;;5054994;28;20688;-76
2022/07/03 06:26:14;;;;;;;0.00;0.00;;;20.20;99.90;19.30;96425.00;;;;5055504;28;20194;-77
2022/07/03 06:28:42;;;;;;;0.00;0.00;;;20.30;99.90;19.40;96435.00;;;;5055627;28;20237;-75
2022/07/03 06:31:11;;;;;;;0.00;0.00;;;20.40;99.90;19.50;96434.00;;;;5054709;28;20218;-76
2022/07/03 06:33:39;;;;;;;0.00;0.00;;;20.50;99.90;19.60;96443.00;;;;5054369;28;20206;-78
2022/07/03 06:36:07;;;;;;;0.00;0.00;;;20.60;99.90;19.70;96442.00;;;;5054698;28;20194;-76
2022/07/03 06:38:35;;;;;;;0.00;0.00;;;20.70;99.90;19.80;96440.00;;;;5054348;28;20225;-76
2022/07/03 06:41:04;;;;;;;0.00;0.00;;;20.80;99.90;20.00;96455.00;;;;5054678;28;20219;-75
2022/07/03 06:43:32;;;;;;;0.00;0.00;;;21.00;99.90;20.10;96466.00;;;;5054496;28;20708;-76
2022/07/03 06:46:00;;;;;;;0.00;0.00;;;21.00;99.90;20.10;96472.00;;;;5054692;28;20186;-77
2022/07/03 06:48:31;;;;;;;0.00;0.00;;;21.10;99.90;20.40;96477.00;;;;5054697;28;20290;-76
2022/07/03 06:50:59;;;;;;;0.00;0.00;;;21.30;99.90;20.50;96476.00;;;;5054230;28;20583;-76
2022/07/03 06:53:27;;;;;;;0.00;0.00;;;21.50;99.90;20.70;96486.00;;;;5055061;28;20206;-76
2022/07/03 06:55:55;;;;;;;0.00;0.00;;;21.60;99.90;20.80;96496.00;;;;5054797;28;20202;-76
2022/07/03 06:58:24;;;;;;;0.00;0.00;;;21.80;99.90;21.00;96499.00;;;;5054265;28;20194;-76
2022/07/03 07:00:52;;;;;;;0.00;0.00;;;21.90;99.90;21.10;96509.00;;;;5053952;28;20210;-76
2022/07/03 07:03:20;;;;;;;0.00;0.00;;;22.00;99.90;21.20;96510.00;;;;5054147;28;20194;-76
2022/07/03 07:05:48;;;;;;;0.00;0.00;;;22.10;99.90;21.40;96514.00;;;;5054007;28;20535;-76
2022/07/03 07:08:16;;;;;;;0.00;0.00;;;22.30;99.90;21.50;96510.00;;;;5054195;28;20194;-75
2022/07/03 07:10:44;;;;;;;0.00;0.00;;;22.50;99.90;21.60;96520.00;;;;5054203;28;20587;-75
2022/07/03 07:13:12;;;;;;;0.00;0.00;;;22.50;99.90;21.80;96509.00;;;;5054526;28;20658;-75
2022/07/03 07:15:41;;;;;;;0.00;0.00;;;22.70;99.90;22.00;96512.00;;;;5054331;28;20191;-75
2022/07/03 07:18:09;;;;;;;0.00;0.00;;;23.00;99.90;22.20;96521.00;;;;5054449;28;20189;-74
2022/07/03 07:20:37;;;;;;;0.00;0.00;;;23.10;99.90;22.40;96533.00;;;;5060641;28;20230;-75
2022/07/03 07:23:05;;;;;;;0.00;0.00;;;23.30;99.90;22.60;96534.00;;;;5062661;28;20202;-75
2022/07/03 07:25:33;;;;;;;0.00;0.00;;;23.40;99.90;22.70;96545.00;;;;5062085;28;20202;-75
2022/07/03 07:28:01;;;;;;;0.00;0.00;;;23.60;99.90;22.80;96549.00;;;;5059584;28;20187;-75
2022/07/03 07:30:29;;;;;;;0.00;0.00;;;23.70;99.90;22.90;96545.00;;;;5056879;28;20227;-75
2022/07/03 07:32:58;;;;;;;0.00;0.00;;;23.80;99.90;23.00;96546.00;;;;5054769;28;20195;-75
2022/07/03 07:35:26;;;;;;;0.00;0.00;;;23.90;99.90;23.10;96554.00;;;;5053856;28;20653;-75
2022/07/03 07:37:54;;;;;;;0.00;0.00;;;23.90;99.90;23.10;96567.00;;;;5053281;28;20228;-75
2022/07/03 07:40:22;;;;;;;0.00;0.00;;;24.00;99.90;23.20;96557.00;;;;5053400;28;20617;-75
2022/07/03 07:42:50;;;;;;;0.00;0.00;;;24.00;99.90;23.30;96565.00;;;;5052257;28;20241;-75
2022/07/03 07:45:18;;;;;;;0.00;0.00;;;24.10;99.90;23.50;96554.00;;;;5053534;28;20187;-75
2022/07/03 07:47:46;;;;;;;0.00;0.00;;;24.30;99.90;23.60;96567.00;;;;5053158;28;20186;-77
2022/07/03 07:50:15;;;;;;;0.00;0.00;;;24.40;99.90;23.70;96588.00;;;;5053297;28;20210;-75
2022/07/03 07:52:43;;;;;;;0.00;0.00;;;24.50;99.90;23.70;96574.00;;;;5053838;28;20198;-75
2022/07/03 07:55:11;;;;;;;0.00;0.00;;;24.50;99.90;23.70;96588.00;;;;5054268;28;20182;-75
2022/07/03 07:57:41;;;;;;;0.00;0.00;;;24.50;99.90;23.70;96572.00;;;;5053732;28;20205;-75
2022/07/03 08:00:12;;;;;;;0.00;0.00;;;24.50;99.90;24.00;96580.00;;;;5053412;28;20222;-75
2022/07/03 08:05:38;;;;;;;0.00;0.00;;;25.00;99.90;24.40;96620.00;;;;5053712;28;20661;-75
2022/07/03 08:08:09;;;;;;;0.00;0.00;;;25.20;99.90;24.50;96597.00;;;;5053061;28;20198;-74
2022/07/03 08:10:39;;;;;;;0.00;0.00;;;25.20;99.90;24.50;96599.00;;;;5053215;28;20301;-77
2022/07/03 08:13:09;;;;;;;0.00;0.00;;;25.20;99.90;24.70;96603.00;;;;5053084;28;20190;-74
2022/07/03 08:15:37;;;;;;;0.00;0.00;;;25.40;99.90;24.90;96603.00;;;;5053311;28;20183;-75
2022/07/03 08:18:06;;;;;;;0.00;0.00;;;25.60;99.60;25.10;96602.00;;;;5053964;28;21018;-76
2022/07/03 08:20:37;;;;;;;0.00;0.00;;;25.80;99.30;25.20;96604.00;;;;5059618;28;20583;-75
2022/07/03 08:23:05;;;;;;;0.00;0.00;;;25.90;99.50;25.40;96613.00;;;;5057690;28;20680;-75
2022/07/03 08:25:34;;;;;;;0.00;0.00;;;26.10;99.00;25.50;96607.00;;;;5058241;28;20677;-75
2022/07/03 08:28:02;;;;;;;0.00;0.00;;;26.10;98.90;25.50;96615.00;;;;5057537;28;20194;-75
2022/07/03 08:30:30;;;;;;;0.00;0.00;;;26.10;98.90;25.50;96613.00;;;;5057120;28;20225;-76
2022/07/03 08:32:59;;;;;;;0.00;0.00;;;26.20;97.70;25.60;96617.00;;;;5058177;28;20194;-75
2022/07/03 08:35:28;;;;;;;0.00;0.00;;;26.30;97.80;25.40;96610.00;;;;5056350;28;20202;-75
2022/07/03 08:37:57;;;;;;;0.00;0.00;;;26.20;97.50;25.60;96643.00;;;;5057406;28;20259;-76
2022/07/03 08:40:25;;;;;;;0.00;0.00;;;26.30;96.80;25.50;96635.00;;;;5054042;28;20225;-75
2022/07/03 08:42:57;;;;;;;0.00;0.00;;;26.30;97.20;25.70;96635.00;;;;5052430;28;20670;-75
2022/07/03 08:45:26;;;;;;;0.00;0.00;;;26.40;97.00;25.90;96641.00;;;;5052632;28;20183;-76
2022/07/03 08:47:59;;;;;;;0.00;0.00;;;26.50;96.90;26.00;96633.00;;;;5052414;28;20225;-75
2022/07/03 08:50:27;;;;;;;0.00;0.00;;;26.60;96.50;26.10;96620.00;;;;5052546;28;20229;-76
2022/07/03 08:52:57;;;;;;;0.00;0.00;;;26.80;96.40;26.20;96642.00;;;;5052227;28;20556;-76
2022/07/03 08:55:25;;;;;;;0.00;0.00;;;26.90;96.30;26.40;96633.00;;;;5052446;28;20194;-75
2022/07/03 08:58:02;;;;;;;0.00;0.00;;;27.00;96.30;26.40;96644.00;;;;5052569;28;20610;-76
2022/07/03 09:00:32;;;;;;;0.00;0.00;;;27.00;95.80;26.50;96632.00;;;;5052216;28;20597;-76
2022/07/03 09:03:04;;;;;;;0.00;0.00;;;27.10;95.70;26.60;96646.00;;;;5052219;28;20662;-76
2022/07/03 09:05:32;;;;;;;0.00;0.00;;;27.20;95.50;26.50;96626.00;;;;5054816;28;20220;-76
2022/07/03 09:08:03;;;;;;;0.00;0.00;;;27.30;95.30;26.20;96626.00;;;;5052468;28;20194;-75
2022/07/03 09:10:31;;;;;;;0.00;0.00;;;27.10;95.40;25.80;96593.00;;;;5052134;28;20279;-76
2022/07/03 09:12:59;;;;;;;0.00;0.00;;;26.70;95.60;26.20;96605.00;;;;5051945;28;20199;-76
2022/07/03 09:15:28;;;;;;;0.00;0.00;;;27.00;95.50;26.50;96563.00;;;;5052011;28;20190;-79
2022/07/03 09:18:02;;;;;;;0.00;0.00;;;27.20;94.90;27.00;96633.00;;;;5051909;28;20182;-76
2022/07/03 09:20:34;;;;;;;0.00;0.00;;;27.50;94.20;27.30;96652.00;;;;5052083;28;20305;-75
2022/07/03 09:23:15;;;;;;;0.00;0.00;;;27.80;94.10;27.40;96614.00;;;;5051909;28;20198;-78
2022/07/03 09:25:55;;;;;;;0.00;0.00;;;27.90;94.20;27.00;96643.00;;;;5051736;28;20190;-76
2022/07/03 09:28:24;;;;;;;0.00;0.00;;;27.80;94.20;27.00;96632.00;;;;5051795;28;20199;-76
2022/07/03 09:31:02;;;;;;;0.00;0.00;;;27.90;94.00;27.50;96587.00;;;;5050602;28;20273;-77
2022/07/03 09:33:30;;;;;;;0.00;0.00;;;28.10;94.30;27.60;96628.00;;;;5053375;28;20201;-76
2022/07/03 09:35:58;;;;;;;0.00;0.00;;;28.20;94.00;27.90;96631.00;;;;5056033;28;20315;-76
2022/07/03 09:38:28;;;;;;;0.00;0.00;;;28.40;94.10;28.00;96634.00;;;;5054451;28;20263;-77
2022/07/03 09:40:57;;;;;;;0.00;0.00;;;28.50;93.60;28.30;96642.00;;;;5055702;28;20217;-77
2022/07/03 09:43:28;;;;;;;0.00;0.00;;;28.90;93.70;28.00;96622.00;;;;5055932;28;20214;-76
2022/07/03 09:45:59;;;;;;;0.00;0.00;;;28.50;93.30;27.30;96612.00;;;;5055562;28;20186;-77
2022/07/03 09:48:32;;;;;;;0.00;0.00;;;28.10;93.80;27.00;96617.00;;;;5055664;28;20194;-76
2022/07/03 09:51:13;;;;;;;0.00;0.00;;;28.00;93.90;27.10;96611.00;;;;5055698;28;20723;-78
2022/07/03 09:53:55;;;;;;;0.00;0.00;;;27.70;94.20;26.50;96585.00;;;;5055816;28;20186;-78
2022/07/03 09:56:28;;;;;;;0.00;0.00;;;27.50;94.20;26.70;96602.00;;;;5056172;28;20587;-76
2022/07/03 09:59:17;;;;;;;0.00;0.00;;;27.50;94.30;26.50;96606.00;;;;5055296;28;20198;-76
2022/07/03 10:01:47;;;;;;;0.00;0.00;;;27.40;94.40;26.50;96582.00;;;;5055469;28;20218;-77
2022/07/03 10:04:19;;;;;;;0.00;0.00;;;27.30;94.70;26.90;96619.00;;;;5056044;28;20596;-76
2022/07/03 10:06:58;;;;;;;0.00;0.00;;;27.60;94.40;27.20;96586.00;;;;5055469;28;20194;-76
2022/07/03 10:09:30;;;;;;;0.00;0.00;;;27.80;94.40;27.80;96597.00;;;;5055309;28;20610;-76
2022/07/03 10:12:01;;;;;;;0.00;0.00;;;28.20;93.60;27.90;96602.00;;;;5055292;28;20199;-76
2022/07/03 10:14:31;;;;;;;0.00;0.00;;;28.40;93.20;27.70;96584.00;;;;5055737;28;20195;-78
2022/07/03 10:17:01;;;;;;;0.00;0.00;;;28.30;92.20;27.70;96578.00;;;;5055360;28;20429;-76
2022/07/03 10:19:31;;;;;;;0.00;0.00;;;28.30;91.80;28.10;96531.00;;;;5060781;28;20206;-76
2022/07/03 10:22:03;;;;;;;0.00;0.00;;;28.60;91.90;28.40;96562.00;;;;5061046;28;20238;-78
2022/07/03 10:24:32;;;;;;;0.00;0.00;;;28.80;91.50;28.50;96602.00;;;;5061855;28;20201;-79
2022/07/03 10:27:01;;;;;;;0.00;0.00;;;29.00;91.50;28.20;96596.00;;;;5057805;28;20273;-75
2022/07/03 10:29:30;;;;;;;0.00;0.00;;;28.90;91.10;27.90;96579.00;;;;5054970;28;20214;-76
2022/07/03 10:31:58;;;;;;;0.00;0.00;;;28.50;91.40;27.70;96589.00;;;;5055401;28;20202;-75
2022/07/03 10:34:28;;;;;;;0.00;0.00;;;28.30;91.60;27.20;96575.00;;;;5054914;28;20662;-75
2022/07/03 10:37:01;;;;;;;0.00;0.00;;;27.90;91.80;27.10;96567.00;;;;5054547;28;20610;-75
2022/07/03 10:39:49;;;;;;;0.00;0.00;;;27.90;92.00;28.00;96589.00;;;;5054977;28;20613;-76
2022/07/03 10:45:14;;;;;;;0.00;0.00;;;28.80;91.10;27.90;96601.00;;;;5054164;28;20541;-76
2022/07/03 10:47:47;;;;;;;0.00;0.00;;;28.50;91.10;27.50;96560.00;;;;5054521;28;20195;-76
2022/07/03 10:50:17;;;;;;;0.00;0.00;;;28.30;91.60;27.90;96590.00;;;;5054781;28;20213;-76
2022/07/03 10:52:46;;;;;;;0.00;0.00;;;28.50;91.50;28.00;96592.00;;;;5055348;28;20195;-77
2022/07/03 10:55:17;;;;;;;0.00;0.00;;;28.70;91.40;28.40;96614.00;;;;5055253;28;20201;-77
2022/07/03 10:58:10;;;;;;;0.00;0.00;;;28.90;91.30;28.30;96619.00;;;;5054785;28;20220;-75
2022/07/03 11:00:57;;;;;;;0.00;0.00;;;28.90;90.80;28.30;96609.00;;;;5054304;28;20277;-76
2022/07/03 11:03:55;;;;;;;0.00;0.00;;;29.00;91.10;28.20;96612.00;;;;5054505;28;20273;-76
2022/07/03 11:07:08;;;;;;;0.00;0.00;;;28.90;90.30;27.80;96590.00;;;;5054630;28;20199;-75
2022/07/03 11:09:36;;;;;;;0.00;0.00;;;28.60;90.10;27.60;96611.00;;;;5053982;28;20206;-75
2022/07/03 11:12:05;;;;;;;0.00;0.00;;;28.30;90.40;27.90;96580.00;;;;5059822;28;20201;-76
2022/07/03 11:14:34;;;;;;;0.00;0.00;;;28.50;90.80;28.40;96616.00;;;;5060486;28;20206;-76
2022/07/03 11:17:19;;;;;;;0.00;0.00;;;29.00;90.70;29.00;96620.00;;;;5064172;28;20672;-77
2022/07/03 11:22:52;;;;;;;0.00;0.00;;;29.70;89.20;29.60;96645.00;;;;5063165;28;20709;-77
2022/07/03 11:25:23;;;;;;;0.00;0.00;;;30.00;87.30;29.60;96651.00;;;;5064833;28;20234;-76